sensor_id;sensor_type;location;lat;lon;timestamp;pressure;altitude;pressure_sealevel;temperature;humidity
6144;BME280;3103;49.492;8.474;2023-03-20T00:01:22;100774.34;;;11.13;88.49
6144;BME280;3103;49.492;8.474;2023-03-20T00:03:50;100775.75;;;11.27;88.83
6144;BME280;3103;49.492;8.474;2023-03-20T00:06:25;100771.28;;;11.33;87.76
6144;BME280;3103;49.492;8.474;2023-03-20T00:08:54;100771.50;;;11.55;86.61
6144;BME280;3103;49.492;8.474;2023-03-20T00:13:56;100773.13;;;11.44;86.77
6144;BME280;3103;49.492;8.474;2023-03-20T00:16:27;100775.75;;;11.16;87.57
6144;BME280;3103;49.492;8.474;2023-03-20T00:18:55;100780.16;;;11.34;87.33
6144;BME280;3103;49.492;8.474;2023-03-20T00:21:22;100778.91;;;11.13;87.97
6144;BME280;3103;49.492;8.474;2023-03-20T00:23:48;100785.06;;;11.25;88.11
6144;BME280;3103;49.492;8.474;2023-03-20T00:26:17;100791.28;;;11.25;87.72
6144;BME280;3103;49.492;8.474;2023-03-20T00:28:46;100783.69;;;11.11;88.89
6144;BME280;3103;49.492;8.474;2023-03-20T00:31:24;100784.38;;;11.41;86.93
6144;BME280;3103;49.492;8.474;2023-03-20T00:33:54;100779.81;;;11.42;87.32
6144;BME280;3103;49.492;8.474;2023-03-20T00:36:22;100775.38;;;11.24;86.94
6144;BME280;3103;49.492;8.474;2023-03-20T00:38:49;100788.00;;;11.35;87.02
6144;BME280;3103;49.492;8.474;2023-03-20T00:41:50;100789.28;;;10.97;88.11
6144;BME280;3103;49.492;8.474;2023-03-20T00:44:39;100791.63;;;10.94;88.75
6144;BME280;3103;49.492;8.474;2023-03-20T00:47:15;100793.25;;;10.95;88.49
6144;BME280;3103;49.492;8.474;2023-03-20T00:49:45;100781.69;;;10.94;88.79
6144;BME280;3103;49.492;8.474;2023-03-20T00:52:12;100781.22;;;10.97;88.36
6144;BME280;3103;49.492;8.474;2023-03-20T00:54:40;100780.88;;;11.17;88.24
6144;BME280;3103;49.492;8.474;2023-03-20T00:59:50;100781.81;;;11.11;87.14
6144;BME280;3103;49.492;8.474;2023-03-20T01:02:17;100784.75;;;10.98;88.16
6144;BME280;3103;49.492;8.474;2023-03-20T01:04:45;100796.31;;;11.10;88.75
6144;BME280;3103;49.492;8.474;2023-03-20T01:07:14;100793.75;;;11.15;88.52
6144;BME280;3103;49.492;8.474;2023-03-20T01:09:41;100790.69;;;11.23;87.55
6144;BME280;3103;49.492;8.474;2023-03-20T01:12:10;100788.81;;;11.47;86.48
6144;BME280;3103;49.492;8.474;2023-03-20T01:14:40;100786.00;;;11.42;86.52
6144;BME280;3103;49.492;8.474;2023-03-20T01:17:17;100786.94;;;11.48;85.78
6144;BME280;3103;49.492;8.474;2023-03-20T01:19:44;100792.56;;;11.35;85.90
6144;BME280;3103;49.492;8.474;2023-03-20T01:22:11;100786.59;;;11.33;86.41
6144;BME280;3103;49.492;8.474;2023-03-20T01:24:39;100791.16;;;11.20;86.73
6144;BME280;3103;49.492;8.474;2023-03-20T01:27:14;100789.28;;;11.33;86.69
6144;BME280;3103;49.492;8.474;2023-03-20T01:29:41;100791.66;;;11.17;86.81
6144;BME280;3103;49.492;8.474;2023-03-20T01:32:14;100787.06;;;10.83;88.86
6144;BME280;3103;49.492;8.474;2023-03-20T01:34:45;100796.06;;;10.77;89.82
6144;BME280;3103;49.492;8.474;2023-03-20T01:37:17;100788.59;;;10.79;90.21
6144;BME280;3103;49.492;8.474;2023-03-20T01:39:44;100798.28;;;10.91;89.17
6144;BME280;3103;49.492;8.474;2023-03-20T01:42:14;100793.19;;;11.13;88.80
6144;BME280;3103;49.492;8.474;2023-03-20T01:44:43;100797.13;;;10.76;90.20
6144;BME280;3103;49.492;8.474;2023-03-20T01:47:18;100808.19;;;10.67;90.84
6144;BME280;3103;49.492;8.474;2023-03-20T01:53:07;100803.91;;;10.90;90.29
6144;BME280;3103;49.492;8.474;2023-03-20T01:55:40;100807.50;;;10.84;90.37
6144;BME280;3103;49.492;8.474;2023-03-20T01:58:15;100806.00;;;11.11;88.54
6144;BME280;3103;49.492;8.474;2023-03-20T02:00:45;100809.06;;;10.91;90.05
6144;BME280;3103;49.492;8.474;2023-03-20T02:03:16;100808.22;;;10.91;89.25
6144;BME280;3103;49.492;8.474;2023-03-20T02:06:05;100804.16;;;10.88;89.62
6144;BME280;3103;49.492;8.474;2023-03-20T02:08:52;100806.84;;;11.00;89.78
6144;BME280;3103;49.492;8.474;2023-03-20T02:11:21;100798.50;;;10.66;90.44
6144;BME280;3103;49.492;8.474;2023-03-20T02:13:52;100805.16;;;10.64;91.59
6144;BME280;3103;49.492;8.474;2023-03-20T02:16:21;100804.34;;;10.63;91.15
6144;BME280;3103;49.492;8.474;2023-03-20T02:18:57;100809.00;;;10.56;91.92
6144;BME280;3103;49.492;8.474;2023-03-20T02:24:58;100821.63;;;10.67;91.75
6144;BME280;3103;49.492;8.474;2023-03-20T02:39:48;100815.16;;;10.45;93.66
6144;BME280;3103;49.492;8.474;2023-03-20T02:42:26;100825.13;;;10.68;92.21
6144;BME280;3103;49.492;8.474;2023-03-20T02:47:40;100811.03;;;10.73;91.42
6144;BME280;3103;49.492;8.474;2023-03-20T02:50:38;100817.53;;;10.65;92.66
6144;BME280;3103;49.492;8.474;2023-03-20T02:56:16;100815.34;;;10.32;94.33
6144;BME280;3103;49.492;8.474;2023-03-20T02:59:04;100813.38;;;10.39;94.32
6144;BME280;3103;49.492;8.474;2023-03-20T03:01:52;100818.38;;;10.35;94.52
6144;BME280;3103;49.492;8.474;2023-03-20T03:04:25;100818.16;;;10.37;94.80
6144;BME280;3103;49.492;8.474;2023-03-20T03:06:54;100821.00;;;10.42;94.21
6144;BME280;3103;49.492;8.474;2023-03-20T03:09:30;100821.91;;;10.36;94.38
6144;BME280;3103;49.492;8.474;2023-03-20T03:12:30;100819.13;;;10.43;93.84
6144;BME280;3103;49.492;8.474;2023-03-20T03:15:03;100814.88;;;10.35;94.31
6144;BME280;3103;49.492;8.474;2023-03-20T03:17:35;100825.31;;;10.43;94.65
6144;BME280;3103;49.492;8.474;2023-03-20T03:20:11;100820.63;;;10.38;94.61
6144;BME280;3103;49.492;8.474;2023-03-20T03:22:40;100815.03;;;10.52;94.12
6144;BME280;3103;49.492;8.474;2023-03-20T03:25:11;100824.66;;;10.59;93.08
6144;BME280;3103;49.492;8.474;2023-03-20T03:27:47;100823.50;;;10.67;93.01
6144;BME280;3103;49.492;8.474;2023-03-20T03:30:23;100817.88;;;10.68;92.22
6144;BME280;3103;49.492;8.474;2023-03-20T03:33:19;100816.00;;;10.57;92.45
6144;BME280;3103;49.492;8.474;2023-03-20T03:35:48;100811.91;;;10.55;93.37
6144;BME280;3103;49.492;8.474;2023-03-20T03:38:29;100806.88;;;10.47;93.14
6144;BME280;3103;49.492;8.474;2023-03-20T03:44:15;100811.69;;;10.56;92.96
6144;BME280;3103;49.492;8.474;2023-03-20T03:47:10;100806.88;;;10.47;93.14
6144;BME280;3103;49.492;8.474;2023-03-20T03:49:43;100813.44;;;10.62;92.33
6144;BME280;3103;49.492;8.474;2023-03-20T03:52:16;100810.03;;;10.55;93.14
6144;BME280;3103;49.492;8.474;2023-03-20T03:54:50;100808.78;;;10.69;92.29
6144;BME280;3103;49.492;8.474;2023-03-20T03:57:41;100816.03;;;10.81;91.94
6144;BME280;3103;49.492;8.474;2023-03-20T04:00:16;100819.56;;;10.93;91.41
6144;BME280;3103;49.492;8.474;2023-03-20T04:02:47;100827.63;;;10.93;90.91
6144;BME280;3103;49.492;8.474;2023-03-20T04:05:17;100828.56;;;10.87;90.43
6144;BME280;3103;49.492;8.474;2023-03-20T04:07:46;100836.06;;;10.85;90.72
6144;BME280;3103;49.492;8.474;2023-03-20T04:10:14;100834.38;;;10.84;91.46
6144;BME280;3103;49.492;8.474;2023-03-20T04:12:43;100842.94;;;10.92;90.10
6144;BME280;3103;49.492;8.474;2023-03-20T04:15:11;100837.91;;;10.73;91.20
6144;BME280;3103;49.492;8.474;2023-03-20T04:17:39;100838.69;;;10.61;91.33
6144;BME280;3103;49.492;8.474;2023-03-20T04:20:07;100835.63;;;10.58;92.49
6144;BME280;3103;49.492;8.474;2023-03-20T04:22:34;100840.28;;;10.51;92.26
6144;BME280;3103;49.492;8.474;2023-03-20T04:25:21;100843.31;;;10.54;92.39
6144;BME280;3103;49.492;8.474;2023-03-20T04:27:51;100843.94;;;10.56;92.49
6144;BME280;3103;49.492;8.474;2023-03-20T04:30:34;100839.47;;;10.50;92.62
6144;BME280;3103;49.492;8.474;2023-03-20T04:33:12;100834.94;;;10.62;92.26
6144;BME280;3103;49.492;8.474;2023-03-20T04:35:58;100832.13;;;10.69;91.59
6144;BME280;3103;49.492;8.474;2023-03-20T04:38:25;100833.81;;;10.70;91.89
6144;BME280;3103;49.492;8.474;2023-03-20T04:40:53;100840.66;;;10.66;92.17
6144;BME280;3103;49.492;8.474;2023-03-20T04:43:19;100845.41;;;10.94;91.04
6144;BME280;3103;49.492;8.474;2023-03-20T04:45:46;100844.31;;;10.83;90.94
6144;BME280;3103;49.492;8.474;2023-03-20T04:48:13;100841.31;;;10.50;91.93
6144;BME280;3103;49.492;8.474;2023-03-20T04:50:40;100845.56;;;10.57;92.82
6144;BME280;3103;49.492;8.474;2023-03-20T04:53:07;100842.53;;;10.65;92.81
6144;BME280;3103;49.492;8.474;2023-03-20T04:55:33;100850.75;;;10.70;91.98
6144;BME280;3103;49.492;8.474;2023-03-20T04:58:00;100852.00;;;10.68;92.24
6144;BME280;3103;49.492;8.474;2023-03-20T05:00:28;100851.69;;;10.76;91.55
6144;BME280;3103;49.492;8.474;2023-03-20T05:02:54;100853.59;;;10.87;91.49
6144;BME280;3103;49.492;8.474;2023-03-20T05:05:22;100858.16;;;11.10;90.74
6144;BME280;3103;49.492;8.474;2023-03-20T05:07:50;100851.38;;;11.19;89.76
6144;BME280;3103;49.492;8.474;2023-03-20T05:10:30;100859.72;;;11.29;88.72
6144;BME280;3103;49.492;8.474;2023-03-20T05:13:03;100856.53;;;11.21;89.47
6144;BME280;3103;49.492;8.474;2023-03-20T05:15:48;100856.66;;;11.14;89.02
6144;BME280;3103;49.492;8.474;2023-03-20T05:18:24;100864.81;;;10.96;89.27
6144;BME280;3103;49.492;8.474;2023-03-20T05:21:04;100858.34;;;10.74;90.69
6144;BME280;3103;49.492;8.474;2023-03-20T05:23:57;100867.50;;;11.08;90.10
6144;BME280;3103;49.492;8.474;2023-03-20T05:26:42;100868.66;;;10.88;90.09
6144;BME280;3103;49.492;8.474;2023-03-20T05:29:28;100869.81;;;10.92;90.47
6144;BME280;3103;49.492;8.474;2023-03-20T05:32:33;100872.69;;;10.67;91.27
6144;BME280;3103;49.492;8.474;2023-03-20T05:35:32;100870.28;;;10.78;90.98
6144;BME280;3103;49.492;8.474;2023-03-20T05:38:12;100866.13;;;10.63;91.56
6144;BME280;3103;49.492;8.474;2023-03-20T05:40:47;100856.34;;;10.81;91.55
6144;BME280;3103;49.492;8.474;2023-03-20T05:43:37;100854.28;;;10.94;90.50
6144;BME280;3103;49.492;8.474;2023-03-20T05:46:29;100860.69;;;10.70;92.45
6144;BME280;3103;49.492;8.474;2023-03-20T05:49:19;100851.50;;;11.01;90.77
6144;BME280;3103;49.492;8.474;2023-03-20T05:52:24;100854.41;;;11.11;90.10
6144;BME280;3103;49.492;8.474;2023-03-20T05:55:21;100843.53;;;10.94;89.73
6144;BME280;3103;49.492;8.474;2023-03-20T05:58:00;100852.56;;;11.00;91.03
6144;BME280;3103;49.492;8.474;2023-03-20T06:00:46;100854.50;;;10.93;90.55
6144;BME280;3103;49.492;8.474;2023-03-20T06:03:31;100856.63;;;10.91;90.45
6144;BME280;3103;49.492;8.474;2023-03-20T06:06:06;100856.91;;;10.59;92.96
6144;BME280;3103;49.492;8.474;2023-03-20T06:08:34;100860.69;;;10.70;92.45
6144;BME280;3103;49.492;8.474;2023-03-20T06:11:02;100874.66;;;10.60;92.82
6144;BME280;3103;49.492;8.474;2023-03-20T06:13:32;100878.00;;;10.44;93.84
6144;BME280;3103;49.492;8.474;2023-03-20T06:15:59;100881.22;;;10.34;94.35
6144;BME280;3103;49.492;8.474;2023-03-20T06:18:27;100880.81;;;10.49;94.38
6144;BME280;3103;49.492;8.474;2023-03-20T06:20:55;100880.00;;;10.49;93.88
6144;BME280;3103;49.492;8.474;2023-03-20T06:23:24;100880.28;;;10.59;93.81
6144;BME280;3103;49.492;8.474;2023-03-20T06:25:51;100883.44;;;10.67;93.00
6144;BME280;3103;49.492;8.474;2023-03-20T06:28:19;100884.72;;;10.65;92.90
6144;BME280;3103;49.492;8.474;2023-03-20T06:30:52;100887.75;;;10.57;94.10
6144;BME280;3103;49.492;8.474;2023-03-20T06:33:21;100896.22;;;10.42;94.38
6144;BME280;3103;49.492;8.474;2023-03-20T06:35:55;100889.59;;;10.56;94.14
6144;BME280;3103;49.492;8.474;2023-03-20T06:38:24;100890.84;;;10.42;94.34
6144;BME280;3103;49.492;8.474;2023-03-20T06:40:51;100900.06;;;10.46;94.33
6144;BME280;3103;49.492;8.474;2023-03-20T06:43:18;100898.16;;;10.35;94.53
6144;BME280;3103;49.492;8.474;2023-03-20T06:45:50;100898.84;;;10.30;95.72
6144;BME280;3103;49.492;8.474;2023-03-20T06:48:26;100900.25;;;10.33;95.78
6144;BME280;3103;49.492;8.474;2023-03-20T06:50:53;100905.63;;;10.33;95.46
6144;BME280;3103;49.492;8.474;2023-03-20T06:53:28;100907.56;;;10.26;96.30
6144;BME280;3103;49.492;8.474;2023-03-20T06:56:07;100911.69;;;10.28;96.79
6144;BME280;3103;49.492;8.474;2023-03-20T06:58:38;100906.38;;;10.22;97.05
6144;BME280;3103;49.492;8.474;2023-03-20T07:01:10;100909.00;;;10.28;97.05
6144;BME280;3103;49.492;8.474;2023-03-20T07:03:39;100905.91;;;10.25;96.85
6144;BME280;3103;49.492;8.474;2023-03-20T07:06:08;100913.09;;;10.31;97.14
6144;BME280;3103;49.492;8.474;2023-03-20T07:08:36;100913.69;;;10.33;96.61
6144;BME280;3103;49.492;8.474;2023-03-20T07:11:04;100903.53;;;10.35;96.42
6144;BME280;3103;49.492;8.474;2023-03-20T07:13:31;100901.19;;;10.38;96.18
6144;BME280;3103;49.492;8.474;2023-03-20T07:16:06;100903.38;;;10.30;96.77
6144;BME280;3103;49.492;8.474;2023-03-20T07:18:38;100901.13;;;10.45;96.50
6144;BME280;3103;49.492;8.474;2023-03-20T07:21:05;100908.25;;;10.51;96.24
6144;BME280;3103;49.492;8.474;2023-03-20T07:23:33;100904.50;;;10.70;94.63
6144;BME280;3103;49.492;8.474;2023-03-20T07:26:02;100899.84;;;10.78;93.65
6144;BME280;3103;49.492;8.474;2023-03-20T07:28:29;100906.91;;;10.60;94.39
6144;BME280;3103;49.492;8.474;2023-03-20T07:31:18;100907.38;;;10.69;94.21
6144;BME280;3103;49.492;8.474;2023-03-20T07:33:47;100908.44;;;10.68;94.21
6144;BME280;3103;49.492;8.474;2023-03-20T07:36:14;100909.44;;;10.97;92.66
6144;BME280;3103;49.492;8.474;2023-03-20T07:38:42;100918.72;;;11.01;91.87
6144;BME280;3103;49.492;8.474;2023-03-20T07:41:09;100910.88;;;10.99;91.81
6144;BME280;3103;49.492;8.474;2023-03-20T07:43:39;100915.91;;;11.08;91.33
6144;BME280;3103;49.492;8.474;2023-03-20T07:46:27;100912.16;;;10.97;91.93
6144;BME280;3103;49.492;8.474;2023-03-20T07:48:54;100922.94;;;11.09;90.95
6144;BME280;3103;49.492;8.474;2023-03-20T07:51:23;100921.13;;;10.91;92.13
6144;BME280;3103;49.492;8.474;2023-03-20T07:53:50;100926.78;;;11.01;92.04
6144;BME280;3103;49.492;8.474;2023-03-20T07:56:17;100932.88;;;11.08;91.50
6144;BME280;3103;49.492;8.474;2023-03-20T07:58:43;100930.03;;;10.91;92.32
6144;BME280;3103;49.492;8.474;2023-03-20T08:01:10;100924.94;;;10.72;93.24
6144;BME280;3103;49.492;8.474;2023-03-20T08:03:37;100931.38;;;10.70;94.17
6144;BME280;3103;49.492;8.474;2023-03-20T08:06:05;100926.19;;;10.69;94.05
6144;BME280;3103;49.492;8.474;2023-03-20T08:08:35;100933.53;;;10.62;94.63
6144;BME280;3103;49.492;8.474;2023-03-20T08:11:02;100931.97;;;10.73;94.25
6144;BME280;3103;49.492;8.474;2023-03-20T08:13:28;100934.72;;;10.66;95.02
6144;BME280;3103;49.492;8.474;2023-03-20T08:15:55;100933.53;;;10.62;95.37
6144;BME280;3103;49.492;8.474;2023-03-20T08:18:21;100937.41;;;10.66;95.17
6144;BME280;3103;49.492;8.474;2023-03-20T08:20:48;100941.06;;;10.72;95.42
6144;BME280;3103;49.492;8.474;2023-03-20T08:23:16;100944.13;;;10.75;94.19
6144;BME280;3103;49.492;8.474;2023-03-20T08:25:47;100941.72;;;10.85;93.76
6144;BME280;3103;49.492;8.474;2023-03-20T08:28:14;100936.28;;;10.74;94.59
6144;BME280;3103;49.492;8.474;2023-03-20T08:30:41;100937.97;;;10.86;94.54
6144;BME280;3103;49.492;8.474;2023-03-20T08:33:08;100943.66;;;10.78;94.14
6144;BME280;3103;49.492;8.474;2023-03-20T08:35:35;100955.16;;;10.85;94.01
6144;BME280;3103;49.492;8.474;2023-03-20T08:38:02;100952.59;;;10.90;93.57
6144;BME280;3103;49.492;8.474;2023-03-20T08:40:29;100950.06;;;11.07;93.08
6144;BME280;3103;49.492;8.474;2023-03-20T08:42:56;100950.59;;;10.97;92.80
6144;BME280;3103;49.492;8.474;2023-03-20T08:45:23;100953.41;;;10.91;93.39
6144;BME280;3103;49.492;8.474;2023-03-20T08:47:51;100954.13;;;10.98;92.57
6144;BME280;3103;49.492;8.474;2023-03-20T08:50:18;100957.66;;;10.98;92.61
6144;BME280;3103;49.492;8.474;2023-03-20T08:52:45;100958.66;;;10.97;93.18
6144;BME280;3103;49.492;8.474;2023-03-20T08:55:13;100971.94;;;11.22;91.76
6144;BME280;3103;49.492;8.474;2023-03-20T08:57:41;100973.19;;;11.08;91.64
6144;BME280;3103;49.492;8.474;2023-03-20T09:00:10;100973.78;;;11.10;92.42
6144;BME280;3103;49.492;8.474;2023-03-20T09:02:38;100982.72;;;11.22;92.08
6144;BME280;3103;49.492;8.474;2023-03-20T09:05:05;100982.66;;;10.99;92.51
6144;BME280;3103;49.492;8.474;2023-03-20T09:07:33;100973.78;;;11.10;92.12
6144;BME280;3103;49.492;8.474;2023-03-20T09:09:59;100972.63;;;11.06;91.05
6144;BME280;3103;49.492;8.474;2023-03-20T09:12:28;100981.22;;;11.26;90.99
6144;BME280;3103;49.492;8.474;2023-03-20T09:14:57;100980.78;;;11.41;89.71
6144;BME280;3103;49.492;8.474;2023-03-20T09:17:24;100982.25;;;11.25;88.71
6144;BME280;3103;49.492;8.474;2023-03-20T09:19:51;100985.28;;;11.17;88.76
6144;BME280;3103;49.492;8.474;2023-03-20T09:22:18;100983.88;;;11.15;88.41
6144;BME280;3103;49.492;8.474;2023-03-20T09:24:45;100988.22;;;11.16;87.45
6144;BME280;3103;49.492;8.474;2023-03-20T09:27:12;100984.88;;;11.44;86.71
6144;BME280;3103;49.492;8.474;2023-03-20T09:29:42;100985.13;;;11.42;86.29
6144;BME280;3103;49.492;8.474;2023-03-20T09:32:11;100984.41;;;11.47;85.04
6144;BME280;3103;49.492;8.474;2023-03-20T09:34:38;100991.44;;;11.59;84.48
6144;BME280;3103;49.492;8.474;2023-03-20T09:37:05;100992.03;;;11.62;82.69
6144;BME280;3103;49.492;8.474;2023-03-20T09:39:32;100997.53;;;11.55;84.07
6144;BME280;3103;49.492;8.474;2023-03-20T09:42:07;100995.88;;;11.66;83.76
6144;BME280;3103;49.492;8.474;2023-03-20T09:47:37;100998.28;;;11.85;82.36
6144;BME280;3103;49.492;8.474;2023-03-20T09:50:10;101003.06;;;11.72;83.00
6144;BME280;3103;49.492;8.474;2023-03-20T09:53:00;101002.72;;;11.80;83.44
6144;BME280;3103;49.492;8.474;2023-03-20T09:55:34;101009.97;;;11.79;83.45
6144;BME280;3103;49.492;8.474;2023-03-20T09:58:08;100998.28;;;11.85;83.88
6144;BME280;3103;49.492;8.474;2023-03-20T10:00:36;101002.97;;;11.90;83.30
6144;BME280;3103;49.492;8.474;2023-03-20T10:03:06;101003.88;;;11.96;82.52
6144;BME280;3103;49.492;8.474;2023-03-20T10:05:59;101003.88;;;11.72;83.33
6144;BME280;3103;49.492;8.474;2023-03-20T10:08:32;100999.78;;;11.70;83.55
6144;BME280;3103;49.492;8.474;2023-03-20T10:13:43;101006.38;;;11.85;82.16
6144;BME280;3103;49.492;8.474;2023-03-20T10:16:34;101000.28;;;11.90;81.44
6144;BME280;3103;49.492;8.474;2023-03-20T10:21:46;101006.22;;;11.69;83.19
6144;BME280;3103;49.492;8.474;2023-03-20T10:26:48;100996.34;;;11.51;83.83
6144;BME280;3103;49.492;8.474;2023-03-20T10:29:36;101003.69;;;11.32;84.62
6144;BME280;3103;49.492;8.474;2023-03-20T10:32:16;100996.00;;;11.59;85.34
6144;BME280;3103;49.492;8.474;2023-03-20T10:40:34;100999.94;;;11.86;83.21
6144;BME280;3103;49.492;8.474;2023-03-20T10:43:14;101002.16;;;12.01;82.37
6144;BME280;3103;49.492;8.474;2023-03-20T10:45:49;100999.44;;;11.89;81.22
6144;BME280;3103;49.492;8.474;2023-03-20T10:48:26;101001.44;;;11.94;80.83
6144;BME280;3103;49.492;8.474;2023-03-20T10:50:59;100985.75;;;11.79;81.23
6144;BME280;3103;49.492;8.474;2023-03-20T10:53:37;100993.38;;;11.82;80.99
6144;BME280;3103;49.492;8.474;2023-03-20T10:56:27;100993.81;;;11.79;80.49
6144;BME280;3103;49.492;8.474;2023-03-20T10:59:02;100987.75;;;11.84;81.00
6144;BME280;3103;49.492;8.474;2023-03-20T11:01:30;100993.91;;;11.73;80.99
6144;BME280;3103;49.492;8.474;2023-03-20T11:04:00;100990.06;;;11.92;80.23
6144;BME280;3103;49.492;8.474;2023-03-20T11:06:31;100989.47;;;12.25;78.21
6144;BME280;3103;49.492;8.474;2023-03-20T11:09:14;100986.22;;;12.52;76.62
6144;BME280;3103;49.492;8.474;2023-03-20T11:11:45;100981.75;;;12.69;75.02
6144;BME280;3103;49.492;8.474;2023-03-20T11:14:24;100980.56;;;12.65;74.15
6144;BME280;3103;49.492;8.474;2023-03-20T11:16:53;100985.69;;;12.78;73.38
6144;BME280;3103;49.492;8.474;2023-03-20T11:19:22;100978.41;;;13.07;72.50
6144;BME280;3103;49.492;8.474;2023-03-20T11:21:57;100977.31;;;12.63;72.96
6144;BME280;3103;49.492;8.474;2023-03-20T11:24:38;100973.19;;;12.72;72.62
6144;BME280;3103;49.492;8.474;2023-03-20T11:27:09;100969.75;;;12.76;71.48
6144;BME280;3103;49.492;8.474;2023-03-20T11:29:36;100966.22;;;12.76;71.52
6144;BME280;3103;49.492;8.474;2023-03-20T11:34:41;100958.53;;;13.25;68.57
6144;BME280;3103;49.492;8.474;2023-03-20T11:37:26;100961.25;;;13.13;67.96
6144;BME280;3103;49.492;8.474;2023-03-20T11:39:59;100965.13;;;13.34;67.32
6144;BME280;3103;49.492;8.474;2023-03-20T11:42:33;100953.13;;;13.25;66.87
6144;BME280;3103;49.492;8.474;2023-03-20T11:45:12;100950.81;;;13.33;66.67
6144;BME280;3103;49.492;8.474;2023-03-20T11:47:41;100944.59;;;13.50;65.55
6144;BME280;3103;49.492;8.474;2023-03-20T11:52:51;100945.75;;;13.71;64.30
6144;BME280;3103;49.492;8.474;2023-03-20T11:55:27;100949.34;;;13.59;62.87
6144;BME280;3103;49.492;8.474;2023-03-20T11:57:57;100941.34;;;13.31;64.62
6144;BME280;3103;49.492;8.474;2023-03-20T12:00:29;100941.84;;;13.28;63.63
6144;BME280;3103;49.492;8.474;2023-03-20T12:03:02;100937.41;;;13.22;63.53
6144;BME280;3103;49.492;8.474;2023-03-20T12:05:34;100937.09;;;13.35;62.98
6144;BME280;3103;49.492;8.474;2023-03-20T12:08:10;100938.47;;;13.93;61.39
6144;BME280;3103;49.492;8.474;2023-03-20T12:10:41;100931.78;;;14.17;60.11
6144;BME280;3103;49.492;8.474;2023-03-20T12:13:23;100928.75;;;13.92;60.68
6144;BME280;3103;49.492;8.474;2023-03-20T12:15:56;100919.72;;;13.64;61.73
6144;BME280;3103;49.492;8.474;2023-03-20T12:18:37;100922.91;;;13.61;60.32
6144;BME280;3103;49.492;8.474;2023-03-20T12:21:09;100913.16;;;13.39;59.90
6144;BME280;3103;49.492;8.474;2023-03-20T12:23:44;100914.44;;;13.53;60.11
6144;BME280;3103;49.492;8.474;2023-03-20T12:26:17;100907.13;;;13.70;60.33
6144;BME280;3103;49.492;8.474;2023-03-20T12:31:25;100908.53;;;13.94;60.16
6144;BME280;3103;49.492;8.474;2023-03-20T12:34:42;100897.66;;;13.68;59.59
6144;BME280;3103;49.492;8.474;2023-03-20T12:37:10;100901.38;;;13.83;58.97
6144;BME280;3103;49.492;8.474;2023-03-20T12:39:47;100894.81;;;13.79;58.46
6144;BME280;3103;49.492;8.474;2023-03-20T12:45:20;100890.66;;;13.72;57.70
6144;BME280;3103;49.492;8.474;2023-03-20T12:47:56;100891.50;;;13.72;57.39
6144;BME280;3103;49.492;8.474;2023-03-20T12:50:34;100888.94;;;14.04;57.02
6144;BME280;3103;49.492;8.474;2023-03-20T12:53:11;100879.66;;;13.95;56.66
6144;BME280;3103;49.492;8.474;2023-03-20T12:58:26;100870.78;;;14.00;54.78
6144;BME280;3103;49.492;8.474;2023-03-20T13:01:03;100866.41;;;14.42;55.33
6144;BME280;3103;49.492;8.474;2023-03-20T13:03:55;100873.88;;;14.35;53.83
6144;BME280;3103;49.492;8.474;2023-03-20T13:15:02;100847.75;;;14.19;52.34
6144;BME280;3103;49.492;8.474;2023-03-20T13:18:00;100860.06;;;14.32;52.35
6144;BME280;3103;49.492;8.474;2023-03-20T13:20:36;100848.56;;;14.41;51.85
6144;BME280;3103;49.492;8.474;2023-03-20T13:34:18;100845.47;;;14.81;50.31
6144;BME280;3103;49.492;8.474;2023-03-20T13:37:07;100835.19;;;14.30;50.46
6144;BME280;3103;49.492;8.474;2023-03-20T13:40:12;100838.59;;;14.69;50.18
6144;BME280;3103;49.492;8.474;2023-03-20T13:43:19;100836.31;;;14.34;49.55
6144;BME280;3103;49.492;8.474;2023-03-20T13:46:02;100838.16;;;14.50;49.21
6144;BME280;3103;49.492;8.474;2023-03-20T13:51:30;100825.66;;;14.22;49.38
6144;BME280;3103;49.492;8.474;2023-03-20T14:02:12;100824.94;;;14.32;47.26
6144;BME280;3103;49.492;8.474;2023-03-20T14:04:50;100816.44;;;14.45;46.09
6144;BME280;3103;49.492;8.474;2023-03-20T14:07:37;100820.78;;;14.46;46.11
6144;BME280;3103;49.492;8.474;2023-03-20T14:13:04;100822.63;;;14.67;44.99
6144;BME280;3103;49.492;8.474;2023-03-20T14:15:34;100813.03;;;14.54;44.94
6144;BME280;3103;49.492;8.474;2023-03-20T14:18:14;100815.31;;;14.41;44.28
6144;BME280;3103;49.492;8.474;2023-03-20T14:20:43;100812.75;;;14.51;44.51
6144;BME280;3103;49.492;8.474;2023-03-20T14:23:18;100811.16;;;14.55;44.75
6144;BME280;3103;49.492;8.474;2023-03-20T14:25:47;100800.56;;;14.80;45.40
6144;BME280;3103;49.492;8.474;2023-03-20T14:30:48;100811.00;;;14.67;44.08
6144;BME280;3103;49.492;8.474;2023-03-20T14:36:19;100809.66;;;14.69;41.73
6144;BME280;3103;49.492;8.474;2023-03-20T14:39:14;100809.69;;;14.74;41.35
6144;BME280;3103;49.492;8.474;2023-03-20T14:42:01;100812.88;;;14.66;41.27
6144;BME280;3103;49.492;8.474;2023-03-20T14:44:48;100816.38;;;14.99;41.58
6144;BME280;3103;49.492;8.474;2023-03-20T14:47:24;100822.16;;;15.12;40.76
6144;BME280;3103;49.492;8.474;2023-03-20T14:50:08;100820.41;;;14.96;40.69
6144;BME280;3103;49.492;8.474;2023-03-20T14:57:45;100816.91;;;14.96;40.78
6144;BME280;3103;49.492;8.474;2023-03-20T15:00:27;100813.13;;;14.97;41.84
6144;BME280;3103;49.492;8.474;2023-03-20T15:03:14;100813.56;;;14.51;41.08
6144;BME280;3103;49.492;8.474;2023-03-20T15:05:43;100814.38;;;14.52;41.00
6144;BME280;3103;49.492;8.474;2023-03-20T15:08:23;100810.78;;;14.46;41.16
6144;BME280;3103;49.492;8.474;2023-03-20T15:10:55;100810.56;;;14.26;41.90
6144;BME280;3103;49.492;8.474;2023-03-20T15:13:23;100813.13;;;14.38;41.88
6144;BME280;3103;49.492;8.474;2023-03-20T15:15:59;100813.38;;;14.36;42.20
6144;BME280;3103;49.492;8.474;2023-03-20T15:18:30;100808.69;;;14.26;43.23
6144;BME280;3103;49.492;8.474;2023-03-20T15:20:57;100811.47;;;14.10;44.03
6144;BME280;3103;49.492;8.474;2023-03-20T15:23:23;100809.69;;;13.93;43.82
6144;BME280;3103;49.492;8.474;2023-03-20T15:25:52;100806.75;;;14.00;43.34
6144;BME280;3103;49.492;8.474;2023-03-20T15:28:21;100812.22;;;14.05;42.93
6144;BME280;3103;49.492;8.474;2023-03-20T15:30:51;100809.41;;;13.95;42.12
6144;BME280;3103;49.492;8.474;2023-03-20T15:35:50;100814.91;;;14.05;40.42